Terminal Aerodrome Forecast
Issued by NWS Quad Cities IA IL

Home | Current Version | Previous Version | Text Only | Print | Product List | Glossary On
Versions: 1 2 3 4 5 6 7 8 9 10 11 12 13 14 15 16 17 18 19 20 21 22 23 24 25 26 27 28 29
000
FTUS43 KDVN 221700
TAFDBQ
TAF
KDBQ 221720Z 2218/2318 16012KT P6SM SKC
     FM230000 15008KT P6SM SKC
     FM230600 16008KT P6SM BKN070
     FM231300 17010KT P6SM VCSH OVC060
     FM231600 18010KT 6SM -RA BR OVC040=

USA.gov is the U.S. government's official web portal to all federal, state and local government web resources and services.